Terminal Aerodrome Forecast
Issued by NWS Mt. Holly, NJ

Current Version | Previous Version | Text Only | Print | Product List | Glossary On
Versions: 1 2 3 4 5 6 7 8 9 10 11 12 13 14 15 16 17 18 19
000
FTUS41 KPHI 310500
TAFRDG
TAF
KRDG 310520Z 3106/0106 VRB03KT P6SM SCT060 BKN150
     FM311400 24009KT P6SM SCT050
     FM010000 VRB02KT P6SM SCT060 BKN200=

USA.gov is the U.S. government's official web portal to all federal, state and local government web resources and services.